Varina, Iowa
Current Conditions -  °F | °C
As of 6:15 AM on Thursday 18 Dec 2014 (Local Time) from KSLB Reporting Station
Overcast Overcast  
Wind Chill: 10°   Ceiling: 8000
Heat Index: 19°   Visibility: 10mi
Dew Point: 18°   Wind: 7mph
Humidity: 93%   Direction: 120°ESE
Pressure: 30.24"   Gusts: NA
Location:  42.66°N, 94.9°W
Report Text: KSLB 181215Z AUTO 12006KT 10SM SCT006 SCT065 OVC080 M07/M08 A3024 RMK AO2
Loading
Personal Weather Stations






























Interactive Weather Map New forecast layout! Learn more

10-Day Weather Forecast

Advertisements
Track Severe Weather on mobile